Time;durP1;ratioP1;P1;durP2;ratioP2;P2;SDS_P1;SDS_P2;PMS_P1;PMS_P2;Temp;Humidity;BMP_temperature;BMP_pressure;BME280_temperature;BME280_humidity;BME280_pressure;Samples;Min_cycle;Max_cycle;Signal;HPM_P1;HPM_P2
2023/05/24 00:01:25;;;;;;;4.93;2.10;;;;;;;18.29;46.53;100723.69;5042116;28;20417;-75
2023/05/24 00:03:51;;;;;;;3.50;2.03;;;;;;;18.24;46.21;100721.00;5039419;28;20446;-75
2023/05/24 00:06:18;;;;;;;4.55;2.03;;;;;;;18.26;46.54;100721.50;5035383;28;20414;-75
2023/05/24 00:08:43;;;;;;;8.35;2.33;;;;;;;18.27;46.43;100723.97;5040834;28;20400;-75
2023/05/24 00:11:10;;;;;;;2.77;1.80;;;;;;;18.26;46.50;100719.59;5038731;28;20416;-74
2023/05/24 00:13:35;;;;;;;7.13;2.42;;;;;;;18.27;46.58;100718.50;5032675;28;20498;-75
2023/05/24 00:16:01;;;;;;;9.50;2.37;;;;;;;18.28;46.40;100722.03;5039124;28;20490;-75
2023/05/24 00:18:26;;;;;;;4.28;2.40;;;;;;;18.26;46.36;100719.59;5030862;28;20553;-75
2023/05/24 00:20:52;;;;;;;7.60;2.13;;;;;;;18.21;46.26;100710.59;5035129;28;20798;-75
2023/05/24 00:23:17;;;;;;;4.90;2.10;;;;;;;18.20;46.63;100708.97;5040069;28;20502;-75
2023/05/24 00:25:43;;;;;;;2.83;1.83;;;;;;;18.17;46.66;100696.66;5038744;28;20387;-75
2023/05/24 00:28:08;;;;;;;4.03;1.63;;;;;;;18.12;46.94;100696.69;5024985;28;20921;-75
2023/05/24 00:30:33;;;;;;;6.23;2.53;;;;;;;18.04;46.96;100700.06;5042449;28;20488;-75
2023/05/24 00:32:58;;;;;;;7.27;2.53;;;;;;;17.98;46.93;100704.75;5041137;28;20405;-74
2023/05/24 00:35:24;;;;;;;5.33;2.47;;;;;;;17.96;46.78;100706.16;5038867;28;20795;-75
2023/05/24 00:37:49;;;;;;;8.00;2.40;;;;;;;17.90;46.92;100702.66;5035422;28;20410;-75
2023/05/24 00:40:15;;;;;;;3.78;2.08;;;;;;;17.90;46.71;100707.31;5042269;28;20389;-75
2023/05/24 00:42:40;;;;;;;6.57;2.30;;;;;;;17.79;46.82;100700.25;5040152;28;20448;-75
2023/05/24 00:45:07;;;;;;;7.37;2.40;;;;;;;17.76;47.04;100703.59;5033302;28;20490;-75
2023/05/24 00:47:32;;;;;;;4.70;2.20;;;;;;;17.73;47.29;100696.75;5031786;28;20384;-75
2023/05/24 00:49:58;;;;;;;4.80;1.95;;;;;;;17.70;47.53;100708.28;5041086;28;20406;-75
2023/05/24 00:52:23;;;;;;;4.17;2.03;;;;;;;17.67;47.77;100691.59;5042350;28;20762;-75
2023/05/24 00:54:49;;;;;;;3.40;2.25;;;;;;;17.68;48.04;100695.97;5038353;28;20394;-75
2023/05/24 00:57:15;;;;;;;4.88;2.20;;;;;;;17.66;48.32;100689.94;5038000;28;20779;-75
2023/05/24 00:59:41;;;;;;;5.13;2.00;;;;;;;17.68;48.25;100695.97;5039462;28;20387;-75
2023/05/24 01:02:06;;;;;;;3.85;1.65;;;;;;;17.69;48.37;100692.94;5036952;28;20413;-75
2023/05/24 01:04:32;;;;;;;6.30;2.37;;;;;;;17.66;48.48;100690.78;5041191;28;20395;-75
2023/05/24 01:07:16;;;;;;;6.18;2.65;;;;;;;17.62;48.60;100696.00;5039183;28;20912;-75
2023/05/24 01:10:20;;;;;;;4.50;2.30;;;;;;;17.66;48.45;100695.44;5045717;28;20420;-75
2023/05/24 01:12:58;;;;;;;4.32;2.13;;;;;;;17.65;48.57;100691.06;5033205;28;20399;-75
2023/05/24 01:15:32;;;;;;;5.22;2.28;;;;;;;17.62;48.69;100690.53;5026946;28;20423;-75
2023/05/24 01:18:04;;;;;;;6.35;2.60;;;;;;;17.62;48.69;100692.44;5045956;28;20916;-75
2023/05/24 01:20:36;;;;;;;5.10;2.40;;;;;;;17.59;48.69;100693.84;5033279;28;20495;-75
2023/05/24 01:23:07;;;;;;;7.75;2.63;;;;;;;17.57;48.80;100693.31;5042348;28;20391;-75
2023/05/24 01:25:59;;;;;;;4.10;2.53;;;;;;;17.54;49.13;100693.03;5025070;28;20418;-75
2023/05/24 01:28:26;;;;;;;5.43;2.72;;;;;;;17.50;49.03;100686.47;5034028;28;20414;-75
2023/05/24 01:30:52;;;;;;;8.63;2.47;;;;;;;17.44;49.32;100685.72;5042183;28;20399;-75
2023/05/24 01:33:17;;;;;;;4.28;2.33;;;;;;;17.45;49.62;100692.81;5044171;28;20865;-75
2023/05/24 01:35:43;;;;;;;5.00;2.47;;;;;;;17.40;49.45;100692.84;5040207;28;20476;-75
2023/05/24 01:38:11;;;;;;;4.60;2.53;;;;;;;17.40;49.60;100708.47;5042243;28;20402;-75
2023/05/24 01:40:39;;;;;;;6.75;2.60;;;;;;;17.35;49.49;100703.88;5040447;28;20438;-75
2023/05/24 01:43:21;;;;;;;4.43;2.60;;;;;;;17.39;49.48;100699.44;5044433;28;20398;-75
2023/05/24 01:45:49;;;;;;;8.73;2.35;;;;;;;17.41;49.70;100699.16;5035354;28;20433;-75
2023/05/24 01:48:26;;;;;;;4.50;2.70;;;;;;;17.36;49.82;100705.47;5030056;28;20404;-75
2023/05/24 01:50:57;;;;;;;5.50;2.78;;;;;;;17.33;49.95;100702.47;5038589;28;20427;-75
2023/05/24 01:53:25;;;;;;;7.20;2.72;;;;;;;17.27;49.91;100704.44;5039833;28;20753;-75
2023/05/24 01:55:54;;;;;;;6.18;2.70;;;;;;;17.21;50.11;100705.56;5041678;28;20411;-75
2023/05/24 01:58:22;;;;;;;7.70;2.95;;;;;;;17.26;50.12;100701.97;5040326;28;20941;-75
2023/05/24 02:00:48;;;;;;;6.10;2.58;;;;;;;17.23;50.04;100708.84;5042707;28;20464;-75
2023/05/24 02:03:14;;;;;;;8.05;2.67;;;;;;;17.25;50.30;100703.09;5041022;28;20895;-75
2023/05/24 02:05:40;;;;;;;7.18;2.83;;;;;;;17.24;49.92;100715.97;5039766;28;20445;-75
2023/05/24 02:08:05;;;;;;;7.78;2.70;;;;;;;17.26;49.91;100718.41;5036400;28;20391;-75
2023/05/24 02:10:31;;;;;;;6.13;2.67;;;;;;;17.25;49.79;100725.00;5042010;28;20937;-75
2023/05/24 02:12:58;;;;;;;7.30;2.60;;;;;;;17.23;49.86;100722.53;5045147;28;20743;-75
2023/05/24 02:15:23;;;;;;;6.23;2.50;;;;;;;17.22;49.85;100729.13;5041309;28;20405;-75
2023/05/24 02:17:49;;;;;;;4.13;2.30;;;;;;;17.24;49.84;100726.91;5041386;28;20414;-75
2023/05/24 02:20:16;;;;;;;5.93;2.57;;;;;;;17.26;49.65;100724.72;5042045;28;20796;-75
2023/05/24 02:22:41;;;;;;;4.82;2.13;;;;;;;17.26;49.45;100721.97;5044869;28;20484;-75
2023/05/24 02:25:07;;;;;;;4.07;2.07;;;;;;;17.23;49.52;100721.72;5037568;28;20494;-75
2023/05/24 02:27:32;;;;;;;6.23;2.23;;;;;;;17.18;49.56;100721.75;5041120;28;20392;-75
2023/05/24 02:29:57;;;;;;;6.95;2.30;;;;;;;17.18;49.48;100725.31;5039863;28;20949;-75
2023/05/24 02:32:23;;;;;;;7.67;2.20;;;;;;;17.16;49.67;100722.03;5044748;28;20398;-75
2023/05/24 02:34:48;;;;;;;6.03;2.20;;;;;;;17.19;49.46;100721.47;5043204;28;20406;-75
2023/05/24 02:37:13;;;;;;;6.47;2.33;;;;;;;17.12;49.12;100723.72;5040868;28;20391;-75
2023/05/24 02:39:40;;;;;;;12.32;2.97;;;;;;;17.06;49.03;100722.06;5040889;28;20854;-75
2023/05/24 02:42:07;;;;;;;9.80;2.55;;;;;;;17.01;49.01;100719.38;5042180;28;20409;-75
2023/05/24 02:44:32;;;;;;;7.43;2.20;;;;;;;17.01;49.00;100725.66;5041865;28;20496;-75
2023/05/24 02:46:57;;;;;;;7.43;2.70;;;;;;;17.04;48.88;100721.53;5040851;28;20486;-75
2023/05/24 02:49:23;;;;;;;6.93;2.40;;;;;;;17.03;48.82;100723.47;5040378;28;20433;-75
2023/05/24 02:51:48;;;;;;;7.70;2.40;;;;;;;17.00;48.62;100725.94;5042662;28;20454;-75
2023/05/24 02:54:13;;;;;;;6.23;2.17;;;;;;;16.98;48.61;100725.41;5043717;28;20475;-75
2023/05/24 02:56:39;;;;;;;12.60;2.27;;;;;;;16.96;48.79;100724.84;5041920;28;20868;-75
2023/05/24 02:59:04;;;;;;;8.15;2.33;;;;;;;17.00;48.44;100729.50;5039201;28;20399;-75
2023/05/24 03:01:29;;;;;;;6.13;2.10;;;;;;;16.87;48.73;100721.06;5041037;28;20415;-75
2023/05/24 03:03:55;;;;;;;7.03;2.30;;;;;;;16.88;48.48;100730.94;5043488;28;20768;-75
2023/05/24 03:06:20;;;;;;;5.18;2.30;;;;;;;16.87;48.34;100715.59;5040474;28;20391;-75
2023/05/24 03:08:46;;;;;;;6.87;2.60;;;;;;;16.88;48.47;100720.81;5040316;28;20427;-75
2023/05/24 03:11:11;;;;;;;5.90;2.20;;;;;;;16.88;48.31;100723.53;5033447;28;20407;-75
2023/05/24 03:13:36;;;;;;;7.37;2.17;;;;;;;16.86;48.56;100720.25;5038439;28;20486;-75
2023/05/24 03:16:02;;;;;;;6.33;1.77;;;;;;;16.84;48.42;100714.25;5022433;28;20398;-75
2023/05/24 03:18:27;;;;;;;5.85;2.20;;;;;;;16.84;48.17;100719.72;5039109;28;20391;-75
2023/05/24 03:20:52;;;;;;;4.53;2.30;;;;;;;16.75;48.38;100713.19;5038571;28;20423;-75
2023/05/24 03:23:18;;;;;;;10.10;2.60;;;;;;;16.74;48.56;100711.53;5039762;28;20490;-75
2023/05/24 03:25:43;;;;;;;4.73;1.83;;;;;;;16.76;48.57;100719.50;5029609;28;20393;-75
2023/05/24 03:28:09;;;;;;;8.77;2.63;;;;;;;16.78;48.52;100712.63;5040340;28;20404;-75
2023/05/24 03:30:34;;;;;;;6.23;2.40;;;;;;;16.78;48.47;100711.81;5038530;28;20493;-75
2023/05/24 03:33:00;;;;;;;6.88;2.40;;;;;;;16.77;48.57;100710.16;5048138;28;20966;-75
2023/05/24 03:35:25;;;;;;;5.33;2.23;;;;;;;16.75;48.49;100704.16;5028715;28;20405;-75
2023/05/24 03:37:51;;;;;;;6.30;2.25;;;;;;;16.71;48.59;100705.81;5040611;28;20393;-75
2023/05/24 03:40:17;;;;;;;7.43;2.47;;;;;;;16.70;48.33;100704.16;5039574;28;20402;-75
2023/05/24 03:42:42;;;;;;;4.77;2.50;;;;;;;16.57;48.55;100711.03;5039564;28;20886;-75
2023/05/24 03:45:08;;;;;;;8.50;2.30;;;;;;;16.57;48.70;100705.56;5034853;28;20409;-75
2023/05/24 03:47:33;;;;;;;10.73;2.40;;;;;;;16.56;48.66;100706.69;5042802;28;20389;-75
2023/05/24 03:49:58;;;;;;;5.20;2.37;;;;;;;16.57;48.72;100706.41;5039157;28;20981;-75
2023/05/24 03:52:24;;;;;;;6.30;2.10;;;;;;;16.59;48.65;100706.97;5039559;28;20387;-75
2023/05/24 03:54:49;;;;;;;7.93;2.53;;;;;;;16.62;48.51;100702.00;5032256;28;20407;-75
2023/05/24 03:57:15;;;;;;;7.47;2.40;;;;;;;16.65;48.72;100704.19;5028502;28;20420;-75
2023/05/24 03:59:40;;;;;;;4.07;2.00;;;;;;;16.65;48.77;100713.22;5038013;28;20759;-75
2023/05/24 04:02:06;;;;;;;5.53;2.10;;;;;;;16.61;48.80;100717.59;5030561;28;20774;-75
2023/05/24 04:04:31;;;;;;;7.68;2.50;;;;;;;16.64;48.77;100721.69;5033549;28;20411;-75
2023/05/24 04:06:57;;;;;;;6.70;2.40;;;;;;;16.66;48.63;100725.00;5038360;28;20392;-75
2023/05/24 04:09:22;;;;;;;7.13;2.22;;;;;;;16.66;48.68;100730.47;5039086;28;20389;-75
2023/05/24 04:11:48;;;;;;;6.43;2.30;;;;;;;16.69;48.55;100727.16;5040469;28;20861;-75
2023/05/24 04:14:13;;;;;;;4.03;1.97;;;;;;;16.59;48.64;100725.28;5038267;28;20558;-76
2023/05/24 04:16:40;;;;;;;11.63;2.37;;;;;;;16.55;48.86;100729.66;5042725;28;20389;-75
2023/05/24 04:19:06;;;;;;;8.15;2.22;;;;;;;16.57;48.65;100727.47;5038593;28;20405;-75
2023/05/24 04:21:32;;;;;;;7.18;2.20;;;;;;;16.58;48.80;100729.13;5038867;28;20434;-75
2023/05/24 04:24:00;;;;;;;7.80;2.50;;;;;;;16.59;48.90;100728.84;5039168;28;20409;-75
2023/05/24 04:26:26;;;;;;;8.20;2.33;;;;;;;16.56;48.95;100731.31;5022766;28;20543;-75
2023/05/24 04:28:51;;;;;;;5.72;2.45;;;;;;;16.53;48.61;100731.84;5033535;28;20485;-75
2023/05/24 04:31:16;;;;;;;9.20;2.57;;;;;;;16.56;48.58;100725.84;5037989;28;20399;-75
2023/05/24 04:33:42;;;;;;;8.80;2.10;;;;;;;16.51;49.03;100734.84;5032241;28;20942;-75
2023/05/24 04:36:10;;;;;;;6.18;2.20;;;;;;;16.51;49.20;100734.84;5030805;28;20399;-75
2023/05/24 04:38:37;;;;;;;6.55;2.20;;;;;;;16.48;49.00;100737.31;5027137;28;20391;-75
2023/05/24 04:41:04;;;;;;;9.10;2.00;;;;;;;16.51;48.93;100737.56;5034489;28;20502;-75
2023/05/24 04:43:32;;;;;;;11.80;2.70;;;;;;;16.49;48.90;100736.22;5038706;28;20747;-75
2023/05/24 04:45:57;;;;;;;6.00;2.22;;;;;;;16.45;49.10;100743.34;5028817;28;20427;-75
2023/05/24 04:48:25;;;;;;;7.43;2.27;;;;;;;16.46;49.05;100740.34;5031622;28;20431;-75
2023/05/24 04:50:51;;;;;;;7.50;2.20;;;;;;;16.44;48.93;100745.25;5031193;28;20410;-75
2023/05/24 04:53:17;;;;;;;7.65;2.55;;;;;;;16.42;48.78;100743.88;5030183;28;20422;-75
2023/05/24 04:55:42;;;;;;;8.88;2.42;;;;;;;16.47;48.83;100743.88;5031489;28;20423;-75
2023/05/24 04:58:08;;;;;;;10.27;2.53;;;;;;;16.46;48.74;100742.25;5031089;28;20957;-75
2023/05/24 05:00:33;;;;;;;4.67;1.83;;;;;;;16.40;49.02;100751.56;5032392;28;20898;-74
2023/05/24 05:02:58;;;;;;;8.90;2.50;;;;;;;16.44;48.82;100747.16;5035063;28;20757;-75
2023/05/24 05:05:23;;;;;;;4.65;1.90;;;;;;;16.44;48.83;100749.91;5025648;28;20590;-75
2023/05/24 05:07:49;;;;;;;8.93;2.30;;;;;;;16.39;49.22;100750.75;5029085;28;20438;-75
2023/05/24 05:10:14;;;;;;;9.93;2.43;;;;;;;16.43;49.11;100751.81;5019021;28;20401;-75
2023/05/24 05:12:39;;;;;;;10.53;2.60;;;;;;;16.46;49.16;100755.94;5027022;28;20416;-75
2023/05/24 05:15:06;;;;;;;8.73;2.30;;;;;;;16.45;49.17;100763.31;5029772;28;20394;-75
2023/05/24 05:17:31;;;;;;;6.70;2.00;;;;;;;16.42;49.61;100761.13;5033645;28;20398;-75
2023/05/24 05:19:56;;;;;;;10.87;2.60;;;;;;;16.41;49.73;100753.19;5037487;28;20398;-75
2023/05/24 05:22:22;;;;;;;7.17;2.57;;;;;;;16.39;49.59;100761.69;5029677;28;20411;-75
2023/05/24 05:24:47;;;;;;;12.10;2.33;;;;;;;16.33;49.68;100762.78;5031187;28;20395;-76
2023/05/24 05:27:12;;;;;;;8.17;2.10;;;;;;;16.38;49.68;100759.22;5032499;28;20414;-76
2023/05/24 05:29:37;;;;;;;7.20;2.40;;;;;;;16.39;49.76;100756.22;5031030;28;20395;-75
2023/05/24 05:32:03;;;;;;;7.70;2.25;;;;;;;16.42;49.69;100761.13;5028698;28;20425;-76
2023/05/24 05:34:28;;;;;;;6.90;2.37;;;;;;;16.47;49.55;100760.28;5020937;28;20909;-76
2023/05/24 05:36:53;;;;;;;7.77;2.23;;;;;;;16.48;49.50;100753.72;5028818;28;20453;-76
2023/05/24 05:39:19;;;;;;;9.23;2.87;;;;;;;16.46;49.60;100750.47;5031113;28;20441;-76
2023/05/24 05:41:44;;;;;;;6.35;2.33;;;;;;;16.48;49.53;100751.81;5030737;28;20446;-76
2023/05/24 05:44:11;;;;;;;8.10;2.33;;;;;;;16.45;49.28;100748.81;5029054;28;20396;-76
2023/05/24 05:46:37;;;;;;;11.07;2.63;;;;;;;16.37;49.39;100749.34;5027880;28;20411;-75
2023/05/24 05:49:03;;;;;;;5.47;2.35;;;;;;;16.39;49.49;100747.19;5029537;28;20578;-76
2023/05/24 05:51:31;;;;;;;7.88;2.17;;;;;;;16.42;49.60;100754.84;5026499;28;20501;-75
2023/05/24 05:53:56;;;;;;;6.35;2.10;;;;;;;16.44;49.74;100745.25;5034484;28;20395;-77
2023/05/24 05:56:22;;;;;;;6.67;2.40;;;;;;;16.41;49.56;100747.72;5032632;28;20753;-76
2023/05/24 05:58:47;;;;;;;11.17;2.70;;;;;;;16.40;49.78;100743.34;5033934;28;20411;-77
2023/05/24 06:01:14;;;;;;;10.80;3.00;;;;;;;16.45;49.95;100748.81;5034245;28;20498;-76
2023/05/24 06:03:40;;;;;;;8.45;2.33;;;;;;;16.47;49.66;100765.75;5033099;28;20403;-77
2023/05/24 06:06:05;;;;;;;12.03;2.93;;;;;;;16.38;49.65;100751.00;5031956;28;20407;-77
2023/05/24 06:08:33;;;;;;;17.30;3.05;;;;;;;16.46;49.71;100758.66;5033745;28;20414;-76
2023/05/24 06:10:59;;;;;;;8.20;2.97;;;;;;;16.50;49.84;100755.06;5033806;28;20406;-76
2023/05/24 06:13:27;;;;;;;9.32;2.50;;;;;;;16.55;49.98;100757.84;5033162;28;20395;-76
2023/05/24 06:15:53;;;;;;;7.30;2.53;;;;;;;16.54;50.13;100758.09;5032083;28;20728;-76
2023/05/24 06:18:19;;;;;;;10.10;2.90;;;;;;;16.58;50.32;100760.03;5034063;28;20403;-76
2023/05/24 06:20:45;;;;;;;9.07;3.13;;;;;;;16.62;50.13;100763.03;5033484;28;20765;-76
2023/05/24 06:23:10;;;;;;;4.90;2.58;;;;;;;16.52;50.26;100765.75;5032740;28;20403;-77
2023/05/24 06:25:37;;;;;;;12.17;3.00;;;;;;;16.41;50.17;100761.38;5030332;28;20422;-76
2023/05/24 06:28:03;;;;;;;7.23;2.50;;;;;;;16.34;50.48;100771.78;5031455;28;20980;-76
2023/05/24 06:30:28;;;;;;;6.60;2.23;;;;;;;16.26;50.46;100770.44;5032159;28;20486;-76
2023/05/24 06:32:53;;;;;;;11.20;2.83;;;;;;;16.36;50.47;100784.13;5033168;28;20494;-76
2023/05/24 06:35:19;;;;;;;11.90;3.00;;;;;;;16.37;50.26;100782.19;5033345;28;20400;-76
2023/05/24 06:37:44;;;;;;;13.97;2.70;;;;;;;16.36;50.31;100783.28;5032213;28;20419;-76
2023/05/24 06:40:10;;;;;;;8.80;2.87;;;;;;;16.42;49.78;100787.66;5032591;28;20403;-76
2023/05/24 06:42:36;;;;;;;8.80;2.33;;;;;;;16.36;49.82;100794.22;5031402;28;20419;-76
2023/05/24 06:45:01;;;;;;;8.38;2.75;;;;;;;16.40;49.50;100795.34;5033365;28;20395;-76
2023/05/24 06:47:27;;;;;;;7.07;2.42;;;;;;;16.48;49.73;100797.50;5032032;28;20429;-76
2023/05/24 06:49:52;;;;;;;8.57;2.37;;;;;;;16.49;49.53;100793.66;5032139;28;20446;-76
2023/05/24 06:52:19;;;;;;;9.05;2.80;;;;;;;16.55;49.91;100796.16;5032071;28;22480;-76
2023/05/24 06:54:44;;;;;;;9.43;2.80;;;;;;;16.50;49.80;100795.28;5017292;28;20407;-76
2023/05/24 06:57:10;;;;;;;8.30;2.30;;;;;;;16.55;49.86;100801.63;5032791;28;20445;-76
2023/05/24 06:59:35;;;;;;;12.23;2.30;;;;;;;16.64;49.81;100796.41;5032072;28;21016;-77
2023/05/24 07:02:00;;;;;;;11.40;3.10;;;;;;;16.71;49.36;100801.59;5020620;28;20452;-76
2023/05/24 07:04:27;;;;;;;13.40;3.23;;;;;;;16.76;49.13;100812.53;5031559;28;20399;-76
2023/05/24 07:06:52;;;;;;;8.90;2.63;;;;;;;16.77;48.68;100806.78;5032986;28;20442;-76
2023/05/24 07:09:18;;;;;;;7.33;2.60;;;;;;;16.78;48.52;100816.63;5031854;28;20834;-76
2023/05/24 07:11:43;;;;;;;11.05;2.53;;;;;;;16.80;48.51;100808.13;5048402;28;20395;-76
2023/05/24 07:14:09;;;;;;;11.03;2.67;;;;;;;16.84;48.31;100811.97;5031671;28;20746;-76
2023/05/24 07:16:34;;;;;;;6.20;2.40;;;;;;;16.83;48.57;100816.59;5012004;28;20472;-76
2023/05/24 07:18:59;;;;;;;8.83;2.83;;;;;;;16.92;48.34;100833.31;5008183;28;20913;-76
2023/05/24 07:21:25;;;;;;;10.43;2.70;;;;;;;16.91;47.90;100823.44;5031651;28;20403;-76
2023/05/24 07:23:50;;;;;;;10.18;2.60;;;;;;;16.83;48.05;100822.09;5032980;28;20395;-76
2023/05/24 07:26:16;;;;;;;13.17;2.80;;;;;;;16.89;48.06;100831.91;5052521;28;20411;-76
2023/05/24 07:28:41;;;;;;;11.37;2.73;;;;;;;16.87;47.75;100833.28;5032303;28;20498;-76
2023/05/24 07:31:08;;;;;;;9.10;2.37;;;;;;;16.89;47.85;100833.88;5032695;28;20457;-76
2023/05/24 07:33:36;;;;;;;7.85;2.03;;;;;;;16.93;47.82;100834.91;5032700;28;20433;-76
2023/05/24 07:36:01;;;;;;;9.07;2.23;;;;;;;16.93;47.60;100833.00;5030356;28;20421;-76
2023/05/24 07:38:28;;;;;;;11.47;2.53;;;;;;;16.89;47.66;100839.34;5031340;28;20493;-76
2023/05/24 07:40:53;;;;;;;8.50;2.63;;;;;;;16.92;47.60;100833.31;5032487;28;20557;-76
2023/05/24 07:43:19;;;;;;;7.38;2.53;;;;;;;16.87;47.63;100839.59;5031126;28;20915;-76
2023/05/24 07:45:44;;;;;;;10.27;3.03;;;;;;;16.92;47.38;100836.88;5032439;28;20422;-76
2023/05/24 07:48:10;;;;;;;8.52;2.08;;;;;;;16.98;47.51;100833.00;5030570;28;20813;-76
2023/05/24 07:50:36;;;;;;;9.57;2.33;;;;;;;17.08;47.57;100832.16;5031048;28;20481;-76
2023/05/24 07:53:01;;;;;;;6.75;2.10;;;;;;;17.13;47.51;100843.91;5032284;28;20408;-76
2023/05/24 07:55:27;;;;;;;10.53;2.83;;;;;;;17.21;46.94;100848.00;5032315;28;20398;-77
2023/05/24 07:57:52;;;;;;;12.15;2.58;;;;;;;17.24;46.83;100850.19;5031159;28;20515;-77
2023/05/24 08:00:18;;;;;;;6.37;1.83;;;;;;;17.26;47.05;100845.22;5032349;28;20777;-76
2023/05/24 08:02:45;;;;;;;9.27;2.35;;;;;;;17.24;46.45;100844.69;5032327;28;20502;-76
2023/05/24 08:05:11;;;;;;;9.82;2.53;;;;;;;17.25;45.46;100843.59;5032100;28;20391;-76
2023/05/24 08:07:37;;;;;;;9.13;2.70;;;;;;;17.32;45.41;100838.63;5030261;28;20466;-76
2023/05/24 08:10:03;;;;;;;15.47;3.33;;;;;;;17.34;45.13;100849.31;5031438;28;20813;-75
2023/05/24 08:12:29;;;;;;;10.38;3.13;;;;;;;17.44;45.30;100852.84;5030926;28;20383;-76
2023/05/24 08:14:55;;;;;;;17.48;2.63;;;;;;;17.58;45.46;100842.91;5031544;28;20754;-76
2023/05/24 08:17:20;;;;;;;7.43;2.20;;;;;;;17.71;45.20;100836.03;5029243;28;20407;-76
2023/05/24 08:19:45;;;;;;;7.27;1.87;;;;;;;17.75;45.10;100831.59;5031999;28;20510;-77
2023/05/24 08:22:11;;;;;;;11.30;2.13;;;;;;;17.65;44.73;100845.34;5031743;28;20442;-76
2023/05/24 08:24:36;;;;;;;7.35;1.95;;;;;;;17.65;44.49;100845.34;5031567;28;20403;-76
2023/05/24 08:27:03;;;;;;;8.40;2.13;;;;;;;17.71;44.12;100847.00;5029695;28;20406;-75
2023/05/24 08:29:28;;;;;;;8.38;1.88;;;;;;;17.76;43.78;100848.88;5031667;28;20886;-76
2023/05/24 08:31:53;;;;;;;6.10;1.90;;;;;;;17.68;43.60;100852.22;5031745;28;20399;-76
2023/05/24 08:34:19;;;;;;;7.73;1.90;;;;;;;17.62;42.78;100852.22;5030718;28;20418;-76
2023/05/24 08:36:44;;;;;;;9.20;2.13;;;;;;;17.60;43.46;100856.34;5031712;28;20441;-76
2023/05/24 08:39:10;;;;;;;10.10;2.27;;;;;;;17.54;43.34;100849.22;5031520;28;20529;-76
2023/05/24 08:41:38;;;;;;;6.23;2.00;;;;;;;17.56;43.66;100850.63;5031638;28;20437;-76
2023/05/24 08:44:06;;;;;;;7.05;2.20;;;;;;;17.53;43.84;100845.66;5031024;28;20417;-76
2023/05/24 08:46:35;;;;;;;5.40;2.17;;;;;;;17.81;43.40;100841.44;5031650;28;20396;-76
2023/05/24 08:49:06;;;;;;;14.77;2.77;;;;;;;17.99;43.15;100849.00;5031192;28;20411;-76
2023/05/24 08:51:32;;;;;;;9.13;2.40;;;;;;;18.24;43.01;100848.00;5031701;28;20401;-76
2023/05/24 08:53:58;;;;;;;11.63;1.92;;;;;;;18.60;42.68;100848.56;5030720;28;20498;-76
2023/05/24 08:56:24;;;;;;;7.47;2.15;;;;;;;18.94;41.78;100849.31;5031462;28;20448;-75
2023/05/24 08:58:50;;;;;;;7.97;2.17;;;;;;;19.18;41.30;100841.91;5030212;28;20413;-76
2023/05/24 09:01:16;;;;;;;9.70;2.22;;;;;;;19.10;40.86;100847.19;5031415;28;20419;-75
2023/05/24 09:03:42;;;;;;;9.30;2.50;;;;;;;19.04;40.52;100846.44;5029646;28;20964;-76
2023/05/24 09:06:12;;;;;;;7.40;2.15;;;;;;;18.87;40.80;100845.28;5030188;28;20754;-76
2023/05/24 09:08:38;;;;;;;5.87;1.57;;;;;;;18.93;40.49;100842.19;5031396;28;20888;-76
2023/05/24 09:11:04;;;;;;;11.60;2.53;;;;;;;18.95;40.27;100839.97;5031355;28;20387;-76
2023/05/24 09:13:30;;;;;;;10.05;2.60;;;;;;;18.97;40.34;100845.97;5030625;28;20411;-76
2023/05/24 09:15:58;;;;;;;10.70;2.50;;;;;;;18.99;40.09;100841.03;5026632;28;20506;-76
2023/05/24 09:18:23;;;;;;;8.70;1.98;;;;;;;18.94;40.67;100846.56;5030691;28;20395;-76
2023/05/24 09:20:48;;;;;;;9.97;2.53;;;;;;;18.92;40.75;100840.53;5031293;28;20758;-76
2023/05/24 09:23:14;;;;;;;7.60;2.20;;;;;;;18.87;40.91;100837.84;5030647;28;20397;-76
2023/05/24 09:25:44;;;;;;;7.07;1.93;;;;;;;18.75;40.89;100845.66;5031480;28;20407;-76
2023/05/24 09:28:13;;;;;;;14.33;2.73;;;;;;;18.73;41.44;100849.81;5035070;28;20391;-76
2023/05/24 09:30:41;;;;;;;7.35;1.83;;;;;;;18.84;41.18;100849.41;5034896;28;20390;-76
2023/05/24 09:33:07;;;;;;;5.82;1.90;;;;;;;19.17;40.86;100855.91;5035011;28;20452;-76
2023/05/24 09:35:32;;;;;;;8.32;2.05;;;;;;;19.32;40.14;100858.50;5033646;28;20430;-76
2023/05/24 09:38:00;;;;;;;11.87;2.17;;;;;;;19.49;39.63;100847.06;5033600;28;20886;-76
2023/05/24 09:40:27;;;;;;;8.45;1.98;;;;;;;19.83;38.74;100849.59;5034920;28;20733;-76
2023/05/24 09:43:03;;;;;;;8.73;2.10;;;;;;;20.14;38.47;100850.81;5034887;28;20398;-76
2023/05/24 09:45:28;;;;;;;8.32;1.88;;;;;;;20.52;37.21;100857.91;5034162;28;20460;-76
2023/05/24 09:47:54;;;;;;;6.93;1.90;;;;;;;21.08;36.32;100848.63;5034404;28;20387;-77
2023/05/24 09:50:19;;;;;;;6.20;2.00;;;;;;;21.59;35.71;100843.75;5033291;28;20906;-76
2023/05/24 09:52:45;;;;;;;6.60;1.87;;;;;;;21.91;35.00;100831.75;5034849;28;20394;-76
2023/05/24 09:55:14;;;;;;;5.67;2.17;;;;;;;22.37;34.31;100847.22;5032537;28;20407;-76
2023/05/24 09:57:40;;;;;;;7.13;1.90;;;;;;;22.91;31.89;100835.06;5034452;28;20395;-76
2023/05/24 10:00:15;;;;;;;7.07;1.70;;;;;;;23.55;31.90;100836.28;5034363;28;20398;-76
2023/05/24 10:02:45;;;;;;;4.82;1.40;;;;;;;24.12;31.18;100834.25;5034361;28;20461;-76
2023/05/24 10:05:11;;;;;;;6.05;1.60;;;;;;;24.33;30.63;100826.94;5033417;28;20481;-77
2023/05/24 10:07:37;;;;;;;7.78;1.80;;;;;;;24.37;30.23;100833.41;5033071;28;20948;-76
2023/05/24 10:10:04;;;;;;;7.68;1.60;;;;;;;24.72;30.03;100825.88;5034420;28;20391;-76
2023/05/24 10:12:30;;;;;;;9.10;2.13;;;;;;;25.31;29.42;100824.03;5034091;28;20457;-76
2023/05/24 10:14:56;;;;;;;5.82;1.80;;;;;;;25.34;29.36;100828.09;5033579;28;20411;-76
2023/05/24 10:17:22;;;;;;;7.40;1.87;;;;;;;25.31;29.16;100837.91;5032895;28;20483;-76
2023/05/24 10:19:47;;;;;;;4.93;1.70;;;;;;;25.34;29.49;100828.09;5032780;28;20833;-76
2023/05/24 10:22:14;;;;;;;6.20;1.90;;;;;;;25.44;28.95;100825.75;5033187;28;20942;-77
2023/05/24 10:24:45;;;;;;;6.32;1.65;;;;;;;25.47;28.80;100829.81;5032628;28;20399;-77
2023/05/24 10:27:14;;;;;;;4.38;1.73;;;;;;;25.49;28.39;100824.75;5032630;28;20406;-76
2023/05/24 10:29:45;;;;;;;4.38;1.60;;;;;;;25.68;28.54;100823.19;5033219;28;20461;-76
2023/05/24 10:32:13;;;;;;;3.95;1.70;;;;;;;25.96;27.92;100817.91;5033843;28;20743;-76
2023/05/24 10:34:40;;;;;;;6.35;2.30;;;;;;;26.08;27.85;100817.16;5032534;28;20465;-77
2023/05/24 10:37:07;;;;;;;9.45;1.95;;;;;;;26.39;27.82;100809.19;5033441;28;20399;-76
2023/05/24 10:39:32;;;;;;;8.33;2.00;;;;;;;26.72;26.89;100810.00;5032448;28;20411;-76
2023/05/24 10:42:05;;;;;;;6.45;2.30;;;;;;;27.01;26.41;100799.84;5033502;28;20414;-77
2023/05/24 10:44:31;;;;;;;7.28;2.20;;;;;;;27.16;25.98;100801.97;5033488;28;20391;-77
2023/05/24 10:47:08;;;;;;;5.22;1.90;;;;;;;27.55;25.51;100795.69;5033458;28;20402;-77
2023/05/24 10:49:35;;;;;;;20.95;1.92;;;;;;;28.20;24.99;100804.81;5032271;28;20767;-76
2023/05/24 10:52:02;;;;;;;4.53;1.70;;;;;;;28.58;24.89;100793.13;5032916;28;20411;-77
2023/05/24 10:54:27;;;;;;;5.80;1.98;;;;;;;29.01;24.02;100795.88;5033486;28;20387;-77
2023/05/24 10:56:52;;;;;;;9.13;2.05;;;;;;;29.32;23.76;100787.50;5033148;28;20754;-76
2023/05/24 10:59:30;;;;;;;3.85;1.63;;;;;;;29.68;23.46;100791.91;5032247;28;20502;-77
2023/05/24 11:01:57;;;;;;;5.20;2.42;;;;;;;29.78;22.71;100787.72;5033234;28;20762;-77
2023/05/24 11:04:23;;;;;;;4.35;1.70;;;;;;;30.27;22.05;100788.78;5033321;28;20380;-77
2023/05/24 11:07:00;;;;;;;5.80;1.85;;;;;;;30.86;21.53;100788.31;5033265;28;20759;-77
2023/05/24 11:09:27;;;;;;;7.75;1.83;;;;;;;31.56;20.58;100795.47;5028323;28;20454;-76
2023/05/24 11:12:06;;;;;;;5.57;1.70;;;;;;;32.16;19.90;100787.88;5031066;28;20778;-79
2023/05/24 11:14:35;;;;;;;6.78;2.05;;;;;;;32.35;18.89;100785.72;5027797;28;20411;-77
2023/05/24 11:17:00;;;;;;;4.10;2.07;;;;;;;32.44;18.33;100787.41;5032171;28;20395;-77
2023/05/24 11:19:37;;;;;;;6.63;1.70;;;;;;;32.76;18.41;100783.75;5032381;28;20410;-78
2023/05/24 11:22:05;;;;;;;6.70;2.13;;;;;;;32.84;18.11;100779.00;5032459;28;20923;-77